Time;durP1;ratioP1;P1;durP2;ratioP2;P2;SDS_P1;SDS_P2;PMS_P1;PMS_P2;Temp;Humidity;BMP_temperature;BMP_pressure;BME280_temperature;BME280_humidity;BME280_pressure;Samples;Min_cycle;Max_cycle;Signal;HPM_P1;HPM_P2
2023/02/02 00:01:08;;;;;;;0.63;0.57;;;;;;;;;;2085069;28;20029;-85
2023/02/02 00:02:27;;;;;;;0.50;0.50;;;;;;;;;;2081279;28;20033;-85
2023/02/02 00:03:47;;;;;;;1.65;0.50;;;;;;;;;;2084647;28;20108;-85
2023/02/02 00:05:06;;;;;;;1.75;0.70;;;;;;;;;;2080250;28;20034;-85
2023/02/02 00:06:26;;;;;;;0.98;0.73;;;;;;;;;;2083296;28;20025;-85
2023/02/02 00:07:45;;;;;;;1.52;0.40;;;;;;;;;;2084100;28;20448;-86
2023/02/02 00:09:04;;;;;;;1.10;0.50;;;;;;;;;;2085732;28;20033;-85
2023/02/02 00:10:23;;;;;;;2.45;0.70;;;;;;;;;;2084519;28;20603;-86
2023/02/02 00:11:43;;;;;;;0.98;0.52;;;;;;;;;;2084977;28;20040;-85
2023/02/02 00:13:02;;;;;;;1.27;0.70;;;;;;;;;;2082696;28;20077;-86
2023/02/02 00:14:21;;;;;;;0.47;0.47;;;;;;;;;;2081992;28;20034;-86
2023/02/02 00:15:40;;;;;;;1.35;0.50;;;;;;;;;;2081414;28;20612;-86
2023/02/02 00:16:59;;;;;;;3.00;0.50;;;;;;;;;;2082206;28;20041;-84
2023/02/02 00:18:18;;;;;;;1.45;0.50;;;;;;;;;;2083882;28;20029;-87
2023/02/02 00:19:37;;;;;;;0.60;0.60;;;;;;;;;;2081027;28;20030;-87
2023/02/02 00:20:56;;;;;;;0.85;0.75;;;;;;;;;;2080371;28;20029;-86
2023/02/02 00:22:15;;;;;;;2.67;0.60;;;;;;;;;;2082146;28;20061;-87
2023/02/02 00:23:34;;;;;;;0.85;0.40;;;;;;;;;;2082230;28;20053;-86
2023/02/02 00:24:53;;;;;;;1.73;0.47;;;;;;;;;;2085264;28;20506;-86
2023/02/02 00:26:12;;;;;;;1.60;0.50;;;;;;;;;;2083906;28;20026;-87
2023/02/02 00:27:31;;;;;;;0.80;0.50;;;;;;;;;;2081499;28;20101;-87
2023/02/02 00:28:50;;;;;;;1.75;0.50;;;;;;;;;;2084379;28;20048;-86
2023/02/02 00:30:09;;;;;;;3.03;0.60;;;;;;;;;;2082614;28;20410;-87
2023/02/02 00:31:28;;;;;;;0.50;0.40;;;;;;;;;;2079351;28;20051;-86
2023/02/02 00:32:49;;;;;;;0.95;0.35;;;;;;;;;;2080492;28;20033;-86
2023/02/02 00:34:09;;;;;;;1.05;0.60;;;;;;;;;;2074746;28;20037;-87
2023/02/02 00:35:28;;;;;;;1.55;0.73;;;;;;;;;;2081773;28;20437;-87
2023/02/02 00:36:48;;;;;;;0.30;0.30;;;;;;;;;;2085262;28;20033;-85
2023/02/02 00:38:07;;;;;;;4.45;0.47;;;;;;;;;;2080765;28;20041;-88
2023/02/02 00:39:26;;;;;;;1.75;0.50;;;;;;;;;;2087375;28;20037;-86
2023/02/02 00:40:45;;;;;;;0.40;0.40;;;;;;;;;;2088905;28;20068;-85
2023/02/02 00:42:04;;;;;;;0.98;0.50;;;;;;;;;;2086211;28;20033;-84
2023/02/02 00:43:23;;;;;;;0.77;0.43;;;;;;;;;;2084348;28;20048;-85
2023/02/02 00:46:20;;;;;;;0.55;0.40;;;;;;;;;;2083325;28;20037;-86
2023/02/02 00:47:39;;;;;;;1.95;0.60;;;;;;;;;;2085145;28;20026;-87
2023/02/02 00:48:58;;;;;;;1.35;0.40;;;;;;;;;;2082096;28;20037;-86
2023/02/02 00:50:18;;;;;;;1.58;0.50;;;;;;;;;;2084974;28;20025;-87
2023/02/02 00:51:37;;;;;;;0.45;0.40;;;;;;;;;;2078648;28;20025;-86
2023/02/02 00:52:57;;;;;;;0.50;0.30;;;;;;;;;;2081027;28;20025;-86
2023/02/02 00:54:17;;;;;;;1.67;0.40;;;;;;;;;;2080305;28;20072;-87
2023/02/02 00:55:36;;;;;;;1.42;0.47;;;;;;;;;;2090612;28;20061;-86
2023/02/02 00:56:54;;;;;;;1.90;0.50;;;;;;;;;;2083056;28;20061;-85
2023/02/02 00:58:13;;;;;;;0.88;0.57;;;;;;;;;;2083111;28;20030;-84
2023/02/02 00:59:32;;;;;;;1.10;0.60;;;;;;;;;;2078560;28;20037;-86
2023/02/02 01:00:51;;;;;;;0.65;0.40;;;;;;;;;;2083870;28;20037;-86
2023/02/02 01:02:11;;;;;;;4.35;0.52;;;;;;;;;;2083423;28;20104;-85
2023/02/02 01:03:29;;;;;;;1.23;0.57;;;;;;;;;;2080435;28;20026;-85
2023/02/02 01:04:48;;;;;;;1.45;0.65;;;;;;;;;;2082195;28;20474;-85
2023/02/02 01:06:07;;;;;;;2.15;0.77;;;;;;;;;;2081953;28;20057;-85
2023/02/02 01:07:26;;;;;;;1.30;0.55;;;;;;;;;;2081530;28;20054;-86
2023/02/02 01:08:45;;;;;;;2.25;0.75;;;;;;;;;;2084696;28;20033;-85
2023/02/02 01:10:05;;;;;;;2.03;0.80;;;;;;;;;;2082501;28;21016;-86
2023/02/02 01:11:24;;;;;;;0.68;0.60;;;;;;;;;;2085265;28;20025;-85
2023/02/02 01:12:44;;;;;;;0.60;0.52;;;;;;;;;;2080176;28;20025;-85
2023/02/02 01:14:03;;;;;;;1.10;0.80;;;;;;;;;;2085879;28;20860;-85
2023/02/02 01:15:21;;;;;;;0.80;0.80;;;;;;;;;;2086141;28;20026;-86
2023/02/02 01:16:40;;;;;;;1.40;0.80;;;;;;;;;;2084840;28;20022;-87
2023/02/02 01:17:59;;;;;;;2.05;0.70;;;;;;;;;;2079988;28;20032;-87
2023/02/02 01:19:18;;;;;;;0.95;0.82;;;;;;;;;;2081797;28;20037;-88
2023/02/02 01:20:37;;;;;;;1.23;0.85;;;;;;;;;;2083524;28;20486;-88
2023/02/02 01:21:56;;;;;;;4.20;1.00;;;;;;;;;;2083136;28;20526;-87
2023/02/02 01:23:15;;;;;;;1.50;0.90;;;;;;;;;;2079574;28;20029;-88
2023/02/02 01:24:33;;;;;;;2.92;0.95;;;;;;;;;;2080385;28;20120;-87
2023/02/02 01:25:53;;;;;;;1.50;0.82;;;;;;;;;;2083979;28;20025;-87
2023/02/02 01:27:12;;;;;;;2.40;1.20;;;;;;;;;;2085600;28;20029;-88
2023/02/02 01:28:31;;;;;;;2.72;1.25;;;;;;;;;;2084968;28;20104;-87
2023/02/02 01:29:50;;;;;;;1.45;1.17;;;;;;;;;;2083404;28;20017;-87
2023/02/02 01:31:16;;;;;;;2.40;0.90;;;;;;;;;;2079093;28;20025;-88
2023/02/02 01:32:35;;;;;;;1.92;1.00;;;;;;;;;;2080297;28;20030;-86
2023/02/02 01:33:54;;;;;;;5.30;1.42;;;;;;;;;;2083429;28;20032;-87
2023/02/02 01:35:13;;;;;;;4.10;1.08;;;;;;;;;;2085100;28;20021;-84
2023/02/02 01:36:32;;;;;;;0.88;0.88;;;;;;;;;;2085603;28;20029;-87
2023/02/02 01:37:51;;;;;;;1.17;0.75;;;;;;;;;;2081474;28;20038;-85
2023/02/02 01:39:10;;;;;;;0.90;0.90;;;;;;;;;;2079933;28;20042;-87
2023/02/02 01:40:29;;;;;;;2.58;0.88;;;;;;;;;;2084337;28;20029;-84
2023/02/02 01:41:48;;;;;;;1.52;1.10;;;;;;;;;;2084869;28;20640;-86
2023/02/02 01:43:19;;;;;;;1.13;0.70;;;;;;;;;;2076111;28;20041;-86
2023/02/02 01:44:57;;;;;;;1.17;0.90;;;;;;;;;;2088755;28;20021;-87
2023/02/02 01:46:21;;;;;;;2.20;1.10;;;;;;;;;;2083905;28;20024;-86
2023/02/02 01:47:42;;;;;;;5.28;1.45;;;;;;;;;;2082482;28;20017;-88
2023/02/02 01:49:01;;;;;;;2.45;1.02;;;;;;;;;;2085965;28;20034;-87
2023/02/02 01:50:22;;;;;;;2.30;0.95;;;;;;;;;;2085377;28;20061;-87
2023/02/02 01:51:43;;;;;;;1.30;0.90;;;;;;;;;;2087557;28;20017;-89
2023/02/02 01:53:03;;;;;;;1.80;1.08;;;;;;;;;;2086620;28;20115;-89
2023/02/02 01:54:23;;;;;;;2.20;0.90;;;;;;;;;;2085566;28;20120;-88
2023/02/02 01:55:42;;;;;;;2.40;1.02;;;;;;;;;;2086208;28;20018;-90
2023/02/02 01:57:07;;;;;;;2.67;1.10;;;;;;;;;;2087182;28;20033;-87
2023/02/02 01:58:28;;;;;;;2.08;0.75;;;;;;;;;;2083667;28;20025;-87
2023/02/02 01:59:48;;;;;;;1.58;1.10;;;;;;;;;;2087450;28;20025;-87
2023/02/02 02:01:08;;;;;;;0.80;0.80;;;;;;;;;;2084107;28;20033;-87
2023/02/02 02:02:28;;;;;;;1.05;0.88;;;;;;;;;;2084610;28;20057;-87
2023/02/02 02:03:47;;;;;;;2.30;0.90;;;;;;;;;;2085453;28;20013;-86
2023/02/02 02:05:07;;;;;;;1.85;0.88;;;;;;;;;;2085508;28;20017;-87
2023/02/02 02:06:27;;;;;;;3.38;0.88;;;;;;;;;;2087168;28;20049;-87
2023/02/02 02:07:47;;;;;;;0.98;0.93;;;;;;;;;;2087052;28;20069;-86
2023/02/02 02:09:06;;;;;;;2.83;0.90;;;;;;;;;;2085817;28;20033;-87
2023/02/02 02:10:25;;;;;;;1.67;1.05;;;;;;;;;;2084339;28;20057;-87
2023/02/02 02:11:44;;;;;;;1.88;0.85;;;;;;;;;;2085800;28;20026;-86
2023/02/02 02:13:04;;;;;;;0.85;0.77;;;;;;;;;;2085306;28;20119;-86
2023/02/02 02:16:20;;;;;;;0.90;0.90;;;;;;;;;;2084343;28;20033;-86
2023/02/02 02:17:50;;;;;;;2.63;1.10;;;;;;;;;;2087779;28;20034;-87
2023/02/02 02:19:09;;;;;;;0.90;0.80;;;;;;;;;;2090763;28;20033;-87
2023/02/02 02:28:05;;;;;;;1.90;0.90;;;;;;;;;;2085343;28;20025;-86
2023/02/02 02:29:24;;;;;;;0.70;0.60;;;;;;;;;;2084329;28;20026;-86
2023/02/02 02:31:02;;;;;;;0.93;0.60;;;;;;;;;;2083240;28;20017;-86
2023/02/02 02:32:35;;;;;;;1.20;0.63;;;;;;;;;;2091388;28;20033;-85
2023/02/02 02:34:10;;;;;;;1.25;0.50;;;;;;;;;;2087059;28;20029;-86
2023/02/02 02:35:33;;;;;;;2.25;0.50;;;;;;;;;;2084128;28;20068;-85
2023/02/02 02:37:15;;;;;;;0.60;0.60;;;;;;;;;;2078045;28;20030;-86
2023/02/02 02:38:37;;;;;;;2.58;0.63;;;;;;;;;;2062871;28;20495;-85
2023/02/02 02:40:01;;;;;;;2.03;0.60;;;;;;;;;;2080404;28;20041;-85
2023/02/02 02:41:22;;;;;;;1.27;0.55;;;;;;;;;;2086114;28;20021;-86
2023/02/02 02:42:44;;;;;;;0.68;0.50;;;;;;;;;;2085498;28;20025;-83
2023/02/02 02:44:05;;;;;;;0.75;0.55;;;;;;;;;;2077568;28;20022;-85
2023/02/02 02:45:26;;;;;;;2.10;0.52;;;;;;;;;;2083496;28;20438;-85
2023/02/02 02:46:45;;;;;;;0.70;0.60;;;;;;;;;;2084029;28;20034;-84
2023/02/02 02:48:04;;;;;;;0.57;0.57;;;;;;;;;;2082430;28;20057;-84
2023/02/02 02:49:23;;;;;;;0.50;0.40;;;;;;;;;;2083351;28;20025;-84
2023/02/02 02:50:42;;;;;;;0.80;0.65;;;;;;;;;;2083734;28;20033;-85
2023/02/02 02:52:01;;;;;;;0.63;0.55;;;;;;;;;;2084388;28;20057;-85
2023/02/02 02:53:21;;;;;;;0.40;0.40;;;;;;;;;;2085730;28;20018;-85
2023/02/02 02:54:44;;;;;;;1.08;0.40;;;;;;;;;;2083009;28;20048;-84
2023/02/02 02:56:03;;;;;;;;;;;;;;;;;;2089485;28;20021;-84
2023/02/02 02:57:31;;;;;;;0.50;0.45;;;;;;;;;;2083027;28;19917;-84
2023/02/02 02:59:16;;;;;;;0.90;0.40;;;;;;;;;;2089513;28;20723;-84
2023/02/02 03:00:41;;;;;;;0.50;0.50;;;;;;;;;;2068515;28;20549;-84
2023/02/02 03:02:20;;;;;;;1.35;0.50;;;;;;;;;;2082820;28;20017;-84
2023/02/02 03:03:47;;;;;;;0.32;0.30;;;;;;;;;;2086839;28;20060;-84
2023/02/02 03:05:12;;;;;;;0.70;0.32;;;;;;;;;;2084179;28;20038;-83
2023/02/02 03:06:52;;;;;;;0.50;0.30;;;;;;;;;;2085090;28;20021;-84
2023/02/02 03:08:15;;;;;;;0.75;0.38;;;;;;;;;;2086058;28;20025;-84
2023/02/02 03:09:36;;;;;;;0.68;0.52;;;;;;;;;;2092986;28;20029;-84
2023/02/02 03:10:56;;;;;;;0.63;0.40;;;;;;;;;;2082412;28;20542;-84
2023/02/02 03:12:15;;;;;;;0.80;0.40;;;;;;;;;;2080345;28;20029;-84
2023/02/02 03:13:34;;;;;;;1.05;0.57;;;;;;;;;;2083665;28;20026;-85
2023/02/02 03:14:53;;;;;;;1.05;0.40;;;;;;;;;;2084328;28;20033;-86
2023/02/02 03:16:14;;;;;;;0.32;0.30;;;;;;;;;;2084979;28;20473;-87
2023/02/02 03:17:33;;;;;;;0.30;0.30;;;;;;;;;;2089261;28;20040;-87
2023/02/02 03:18:52;;;;;;;1.75;0.40;;;;;;;;;;2084065;28;20033;-86
2023/02/02 03:20:11;;;;;;;0.63;0.40;;;;;;;;;;2080789;28;20026;-87
2023/02/02 03:21:31;;;;;;;0.50;0.30;;;;;;;;;;2084476;28;20033;-85
2023/02/02 03:22:50;;;;;;;1.17;0.38;;;;;;;;;;2084209;28;20057;-86
2023/02/02 03:24:10;;;;;;;3.10;0.40;;;;;;;;;;2083181;28;20033;-83
2023/02/02 03:25:28;;;;;;;0.77;0.38;;;;;;;;;;2084672;28;20021;-87
2023/02/02 03:26:48;;;;;;;0.47;0.47;;;;;;;;;;2084120;28;20052;-87
2023/02/02 03:28:07;;;;;;;0.70;0.50;;;;;;;;;;2083511;28;20092;-86
2023/02/02 03:29:27;;;;;;;1.52;0.35;;;;;;;;;;2084334;28;20033;-87
2023/02/02 03:30:47;;;;;;;0.80;0.40;;;;;;;;;;2078348;28;20021;-87
2023/02/02 03:32:06;;;;;;;1.50;0.60;;;;;;;;;;2088065;28;20041;-87
2023/02/02 03:33:25;;;;;;;2.58;0.40;;;;;;;;;;2085044;28;20029;-87
2023/02/02 03:34:44;;;;;;;0.52;0.40;;;;;;;;;;2079420;28;20100;-88
2023/02/02 03:36:03;;;;;;;1.27;0.38;;;;;;;;;;2088712;28;20135;-86
2023/02/02 03:37:22;;;;;;;1.00;0.40;;;;;;;;;;2085880;28;20037;-86
2023/02/02 03:38:41;;;;;;;2.85;0.30;;;;;;;;;;2081480;28;20108;-86
2023/02/02 03:40:00;;;;;;;1.40;0.45;;;;;;;;;;2077178;28;20026;-86
2023/02/02 03:41:19;;;;;;;0.43;0.40;;;;;;;;;;2084889;28;20108;-84
2023/02/02 03:42:38;;;;;;;0.77;0.30;;;;;;;;;;2081731;28;20478;-87
2023/02/02 03:43:57;;;;;;;0.60;0.30;;;;;;;;;;2081194;28;20498;-84
2023/02/02 03:45:16;;;;;;;0.35;0.35;;;;;;;;;;2082222;28;20471;-85
2023/02/02 03:46:35;;;;;;;0.75;0.43;;;;;;;;;;2081108;28;20021;-87
2023/02/02 03:47:54;;;;;;;0.43;0.30;;;;;;;;;;2083218;28;20475;-84
2023/02/02 03:49:13;;;;;;;0.40;0.38;;;;;;;;;;2082906;28;20026;-88
2023/02/02 03:50:33;;;;;;;2.70;0.32;;;;;;;;;;2084337;28;20025;-86
2023/02/02 03:51:52;;;;;;;0.85;0.40;;;;;;;;;;2084119;28;20033;-87
2023/02/02 03:53:11;;;;;;;1.73;0.50;;;;;;;;;;2083690;28;20037;-87
2023/02/02 03:54:30;;;;;;;0.45;0.40;;;;;;;;;;2085602;28;20033;-86
2023/02/02 03:55:48;;;;;;;0.68;0.40;;;;;;;;;;2084532;28;20382;-87
2023/02/02 03:57:07;;;;;;;1.00;0.60;;;;;;;;;;2083207;28;20401;-86
2023/02/02 03:58:26;;;;;;;0.50;0.50;;;;;;;;;;2084827;28;20029;-86
2023/02/02 03:59:45;;;;;;;1.48;0.80;;;;;;;;;;2084770;28;20479;-87
2023/02/02 04:01:05;;;;;;;1.75;0.60;;;;;;;;;;2084220;28;20118;-86
2023/02/02 04:02:24;;;;;;;1.77;0.50;;;;;;;;;;2083809;28;20029;-86
2023/02/02 04:03:45;;;;;;;0.63;0.60;;;;;;;;;;2083298;28;20022;-87
2023/02/02 04:05:04;;;;;;;0.57;0.50;;;;;;;;;;2084408;28;20097;-86
2023/02/02 04:06:24;;;;;;;0.50;0.50;;;;;;;;;;2084148;28;20025;-87
2023/02/02 04:07:43;;;;;;;0.80;0.57;;;;;;;;;;2083551;28;20030;-87
2023/02/02 04:09:02;;;;;;;1.60;0.70;;;;;;;;;;2082218;28;20555;-86
2023/02/02 04:10:21;;;;;;;0.65;0.63;;;;;;;;;;2079936;28;20041;-86
2023/02/02 04:11:39;;;;;;;0.90;0.60;;;;;;;;;;2084204;28;20060;-86
2023/02/02 04:12:58;;;;;;;0.93;0.70;;;;;;;;;;2083839;28;20111;-86
2023/02/02 04:14:18;;;;;;;0.82;0.70;;;;;;;;;;2081788;28;20036;-87
2023/02/02 04:15:37;;;;;;;1.15;0.63;;;;;;;;;;2079799;28;20033;-87
2023/02/02 04:16:56;;;;;;;0.75;0.70;;;;;;;;;;2087868;28;20029;-86
2023/02/02 04:18:14;;;;;;;1.02;0.80;;;;;;;;;;2085890;28;20029;-86
2023/02/02 04:19:33;;;;;;;1.08;0.98;;;;;;;;;;2085635;28;20421;-86
2023/02/02 04:20:59;;;;;;;2.38;0.65;;;;;;;;;;2082090;28;20506;-87
2023/02/02 04:22:18;;;;;;;1.20;0.80;;;;;;;;;;2082018;28;20057;-87
2023/02/02 04:23:37;;;;;;;2.67;1.05;;;;;;;;;;2084022;28;20045;-86
2023/02/02 04:24:56;;;;;;;1.38;1.00;;;;;;;;;;2079439;28;20168;-88
2023/02/02 04:26:15;;;;;;;1.65;0.90;;;;;;;;;;2083932;28;20029;-88
2023/02/02 04:27:34;;;;;;;1.30;1.10;;;;;;;;;;2081685;28;20057;-87
2023/02/02 04:28:53;;;;;;;1.40;1.30;;;;;;;;;;2082090;28;20370;-86
2023/02/02 04:30:12;;;;;;;0.75;0.73;;;;;;;;;;2082325;28;20127;-87
2023/02/02 04:31:31;;;;;;;1.15;0.95;;;;;;;;;;2082315;28;20033;-86
2023/02/02 04:32:51;;;;;;;1.98;1.17;;;;;;;;;;2083479;28;20033;-85
2023/02/02 04:34:10;;;;;;;1.58;0.90;;;;;;;;;;2081928;28;20100;-86
2023/02/02 04:35:29;;;;;;;1.50;0.98;;;;;;;;;;2079716;28;20430;-85
2023/02/02 04:36:48;;;;;;;1.45;0.77;;;;;;;;;;2080836;28;20037;-86
2023/02/02 04:38:06;;;;;;;2.70;1.13;;;;;;;;;;2088165;28;20025;-86
2023/02/02 04:39:29;;;;;;;2.05;1.30;;;;;;;;;;2083779;28;20034;-87
2023/02/02 04:40:49;;;;;;;1.55;1.10;;;;;;;;;;2082998;28;20026;-87
2023/02/02 04:42:08;;;;;;;1.23;1.13;;;;;;;;;;2079209;28;20033;-87
2023/02/02 04:43:26;;;;;;;3.47;0.90;;;;;;;;;;2085106;28;20037;-87
2023/02/02 04:44:46;;;;;;;2.35;1.30;;;;;;;;;;2084592;28;20024;-87
2023/02/02 04:46:05;;;;;;;1.73;0.90;;;;;;;;;;2083220;28;20025;-87
2023/02/02 04:47:24;;;;;;;1.95;1.05;;;;;;;;;;2083939;28;20029;-86
2023/02/02 04:48:43;;;;;;;2.20;1.10;;;;;;;;;;2083617;28;20025;-86
2023/02/02 04:50:02;;;;;;;3.28;1.30;;;;;;;;;;2082589;28;20029;-86
2023/02/02 04:51:21;;;;;;;2.25;1.30;;;;;;;;;;2084495;28;20028;-86
2023/02/02 04:52:40;;;;;;;1.20;1.10;;;;;;;;;;2083897;28;20570;-87
2023/02/02 04:53:59;;;;;;;2.92;1.20;;;;;;;;;;2083772;28;20033;-86
2023/02/02 04:55:18;;;;;;;3.30;1.45;;;;;;;;;;2083503;28;20025;-86
2023/02/02 04:56:37;;;;;;;1.42;1.20;;;;;;;;;;2083580;28;20082;-86
2023/02/02 04:57:56;;;;;;;1.83;1.38;;;;;;;;;;2083493;28;20033;-86
2023/02/02 04:59:15;;;;;;;2.88;1.73;;;;;;;;;;2081070;28;20025;-86
2023/02/02 05:00:34;;;;;;;1.63;1.42;;;;;;;;;;2082452;28;20022;-87
2023/02/02 05:01:53;;;;;;;2.45;1.05;;;;;;;;;;2084333;28;20025;-84
2023/02/02 05:03:12;;;;;;;1.85;0.98;;;;;;;;;;2083835;28;20057;-87
2023/02/02 05:04:31;;;;;;;1.17;1.08;;;;;;;;;;2079446;28;20034;-86
2023/02/02 05:05:50;;;;;;;3.03;1.08;;;;;;;;;;2079868;28;20014;-85
2023/02/02 05:07:09;;;;;;;3.15;1.17;;;;;;;;;;2081309;28;20018;-86
2023/02/02 05:08:28;;;;;;;1.20;1.10;;;;;;;;;;2079473;28;20402;-87
2023/02/02 05:09:47;;;;;;;2.50;0.90;;;;;;;;;;2083510;28;20022;-85
2023/02/02 05:11:07;;;;;;;1.67;1.55;;;;;;;;;;2080925;28;20108;-88
2023/02/02 05:12:26;;;;;;;2.63;1.40;;;;;;;;;;2089706;28;20033;-87
2023/02/02 05:13:46;;;;;;;1.58;1.48;;;;;;;;;;2091850;28;20520;-83
2023/02/02 05:15:05;;;;;;;2.45;1.17;;;;;;;;;;2089030;28;20108;-84
2023/02/02 05:16:24;;;;;;;1.73;1.00;;;;;;;;;;2090275;28;21895;-85
2023/02/02 05:17:43;;;;;;;1.27;0.90;;;;;;;;;;2082672;28;20433;-84
2023/02/02 05:19:02;;;;;;;3.50;1.10;;;;;;;;;;2083934;28;20121;-85
2023/02/02 05:20:21;;;;;;;2.63;1.25;;;;;;;;;;2079110;28;20028;-85
2023/02/02 05:21:40;;;;;;;1.30;1.20;;;;;;;;;;2086666;28;20028;-85
2023/02/02 05:22:59;;;;;;;9.07;1.33;;;;;;;;;;2084220;28;20033;-87
2023/02/02 05:24:17;;;;;;;2.95;1.80;;;;;;;;;;2085025;28;20029;-86
2023/02/02 05:25:37;;;;;;;2.38;1.40;;;;;;;;;;2085950;28;20028;-86
2023/02/02 05:26:59;;;;;;;2.08;1.10;;;;;;;;;;2085915;28;20395;-84
2023/02/02 05:28:18;;;;;;;2.83;1.20;;;;;;;;;;2085249;28;20104;-85
2023/02/02 05:29:37;;;;;;;1.33;1.00;;;;;;;;;;2086253;28;20034;-86
2023/02/02 05:30:56;;;;;;;4.88;1.25;;;;;;;;;;2084152;28;20052;-88
2023/02/02 05:32:15;;;;;;;3.22;1.20;;;;;;;;;;2081468;28;20030;-83
2023/02/02 05:33:34;;;;;;;1.30;1.20;;;;;;;;;;2092445;28;20025;-86
2023/02/02 05:34:53;;;;;;;1.00;0.98;;;;;;;;;;2081747;28;20045;-86
2023/02/02 05:36:12;;;;;;;1.33;1.23;;;;;;;;;;2080505;28;20041;-84
2023/02/02 05:37:31;;;;;;;2.05;1.25;;;;;;;;;;2084009;28;20025;-85
2023/02/02 05:38:50;;;;;;;1.02;0.90;;;;;;;;;;2083915;28;20025;-86
2023/02/02 05:40:09;;;;;;;2.75;0.95;;;;;;;;;;2083115;28;20394;-85
2023/02/02 05:41:29;;;;;;;1.35;1.10;;;;;;;;;;2086835;28;20083;-85
2023/02/02 05:42:48;;;;;;;2.88;0.98;;;;;;;;;;2071781;28;20041;-84
2023/02/02 05:44:08;;;;;;;1.17;1.08;;;;;;;;;;2081519;28;20025;-87
2023/02/02 05:45:27;;;;;;;2.08;1.20;;;;;;;;;;2084274;28;20025;-86
2023/02/02 05:46:46;;;;;;;1.30;0.98;;;;;;;;;;2084458;28;20029;-81
2023/02/02 05:48:05;;;;;;;1.45;0.80;;;;;;;;;;2081297;28;20055;-79
2023/02/02 05:49:24;;;;;;;2.03;1.30;;;;;;;;;;2087012;28;20493;-82
2023/02/02 05:50:44;;;;;;;0.88;0.80;;;;;;;;;;2082937;28;20025;-82
2023/02/02 05:52:04;;;;;;;1.10;1.00;;;;;;;;;;2083909;28;20029;-84
2023/02/02 05:53:23;;;;;;;1.48;1.15;;;;;;;;;;2082011;28;20037;-86
2023/02/02 05:54:43;;;;;;;2.75;0.98;;;;;;;;;;2085762;28;20037;-83
2023/02/02 05:56:02;;;;;;;1.27;1.17;;;;;;;;;;2091479;28;20429;-80
2023/02/02 05:57:21;;;;;;;1.85;1.23;;;;;;;;;;2084394;28;20030;-84
2023/02/02 05:58:40;;;;;;;1.48;0.90;;;;;;;;;;2077125;28;20034;-83
2023/02/02 05:59:59;;;;;;;1.75;1.20;;;;;;;;;;2085762;28;20038;-82
2023/02/02 06:01:18;;;;;;;0.98;0.90;;;;;;;;;;2080415;28;20057;-81
2023/02/02 06:02:37;;;;;;;2.25;1.27;;;;;;;;;;2088356;28;20037;-83
2023/02/02 06:03:56;;;;;;;7.40;1.63;;;;;;;;;;2084773;28;20033;-83
2023/02/02 06:05:15;;;;;;;2.05;1.10;;;;;;;;;;2086723;28;20033;-81
2023/02/02 06:06:34;;;;;;;4.13;1.27;;;;;;;;;;2091198;28;20505;-81
2023/02/02 06:07:53;;;;;;;4.88;1.23;;;;;;;;;;2087821;28;20064;-80
2023/02/02 06:09:12;;;;;;;2.33;1.05;;;;;;;;;;2085088;28;20033;-81
2023/02/02 06:10:32;;;;;;;3.10;1.33;;;;;;;;;;2085004;28;20485;-81
2023/02/02 06:11:51;;;;;;;1.25;0.80;;;;;;;;;;2082184;28;20029;-85
2023/02/02 06:13:10;;;;;;;1.52;1.17;;;;;;;;;;2083734;28;22241;-82
2023/02/02 06:14:29;;;;;;;1.45;1.08;;;;;;;;;;2085048;28;20486;-83
2023/02/02 06:15:48;;;;;;;1.02;0.90;;;;;;;;;;2086097;28;20029;-83
2023/02/02 06:17:06;;;;;;;1.95;1.50;;;;;;;;;;2084009;28;20037;-81
2023/02/02 06:18:25;;;;;;;2.72;0.95;;;;;;;;;;2083856;28;20025;-85
2023/02/02 06:19:47;;;;;;;3.65;1.02;;;;;;;;;;2085444;28;20108;-83
2023/02/02 06:21:07;;;;;;;3.50;1.08;;;;;;;;;;2084976;28;20037;-87
2023/02/02 06:22:25;;;;;;;1.60;1.30;;;;;;;;;;2082859;28;20490;-87
2023/02/02 06:23:44;;;;;;;3.90;1.10;;;;;;;;;;2078042;28;20034;-85
2023/02/02 06:25:04;;;;;;;1.10;1.00;;;;;;;;;;2080586;28;20199;-85
2023/02/02 06:26:23;;;;;;;4.85;1.20;;;;;;;;;;2083367;28;20029;-82
2023/02/02 06:27:45;;;;;;;2.65;0.85;;;;;;;;;;2081694;28;20017;-82
2023/02/02 06:29:04;;;;;;;1.58;1.15;;;;;;;;;;2081175;28;20096;-85
2023/02/02 06:30:23;;;;;;;1.67;1.00;;;;;;;;;;2081152;28;20014;-82
2023/02/02 06:31:42;;;;;;;1.40;1.15;;;;;;;;;;2081795;28;20030;-83
2023/02/02 06:33:01;;;;;;;2.35;1.10;;;;;;;;;;2082926;28;20025;-81
2023/02/02 06:34:19;;;;;;;2.08;1.00;;;;;;;;;;2079999;28;20550;-81
2023/02/02 06:35:38;;;;;;;1.10;1.00;;;;;;;;;;2080804;28;20069;-83
2023/02/02 06:36:57;;;;;;;2.25;0.95;;;;;;;;;;2083081;28;20394;-81
2023/02/02 06:38:17;;;;;;;1.42;1.10;;;;;;;;;;2082995;28;20120;-84
2023/02/02 06:39:38;;;;;;;1.48;1.00;;;;;;;;;;2082228;28;20045;-82
2023/02/02 06:40:58;;;;;;;1.20;1.05;;;;;;;;;;2084866;28;20522;-86
2023/02/02 06:42:17;;;;;;;1.58;1.13;;;;;;;;;;2080827;28;20034;-84
2023/02/02 06:43:36;;;;;;;3.10;0.98;;;;;;;;;;2082046;28;20060;-85
2023/02/02 06:44:55;;;;;;;1.05;0.95;;;;;;;;;;2082502;28;20033;-84
2023/02/02 06:46:14;;;;;;;1.27;0.95;;;;;;;;;;2082553;28;20132;-85
2023/02/02 06:47:33;;;;;;;2.72;1.10;;;;;;;;;;2082763;28;20045;-90
2023/02/02 06:48:52;;;;;;;3.28;1.30;;;;;;;;;;2083879;28;20037;-87
2023/02/02 06:50:11;;;;;;;2.78;1.50;;;;;;;;;;2084637;28;20059;-83
2023/02/02 06:51:31;;;;;;;5.22;1.35;;;;;;;;;;2086053;28;20092;-82
2023/02/02 06:52:51;;;;;;;1.38;1.27;;;;;;;;;;2081359;28;20033;-82
2023/02/02 06:54:10;;;;;;;2.97;1.10;;;;;;;;;;2083513;28;20029;-83
2023/02/02 06:55:29;;;;;;;3.78;0.90;;;;;;;;;;2083883;28;20021;-84
2023/02/02 06:56:48;;;;;;;1.38;1.27;;;;;;;;;;2082503;28;20088;-84
2023/02/02 06:58:07;;;;;;;3.58;1.80;;;;;;;;;;2084227;28;20057;-84
2023/02/02 06:59:27;;;;;;;1.63;0.90;;;;;;;;;;2084885;28;20436;-84
2023/02/02 07:00:47;;;;;;;14.23;1.48;;;;;;;;;;2080570;28;20030;-84
2023/02/02 07:02:08;;;;;;;2.47;1.10;;;;;;;;;;2087203;28;20433;-84
2023/02/02 07:03:27;;;;;;;1.30;1.20;;;;;;;;;;2086794;28;20416;-84
2023/02/02 07:04:46;;;;;;;8.50;1.40;;;;;;;;;;2086914;28;20030;-83
2023/02/02 07:06:16;;;;;;;3.20;1.48;;;;;;;;;;2083898;28;20057;-84
2023/02/02 07:07:35;;;;;;;2.70;1.08;;;;;;;;;;2083884;28;20061;-84
2023/02/02 07:08:54;;;;;;;4.28;1.58;;;;;;;;;;2081232;28;20041;-84
2023/02/02 07:10:14;;;;;;;1.58;1.33;;;;;;;;;;2082696;28;20025;-84
2023/02/02 07:11:36;;;;;;;1.60;1.42;;;;;;;;;;2081214;28;20497;-83
2023/02/02 07:12:55;;;;;;;1.65;1.10;;;;;;;;;;2085511;28;20025;-84
2023/02/02 07:14:14;;;;;;;3.25;1.02;;;;;;;;;;2083529;28;20514;-83
2023/02/02 07:15:33;;;;;;;3.08;1.50;;;;;;;;;;2084501;28;20032;-85
2023/02/02 07:16:52;;;;;;;2.85;1.00;;;;;;;;;;2085730;28;20759;-84
2023/02/02 07:18:11;;;;;;;4.32;1.48;;;;;;;;;;2086094;28;20113;-83
2023/02/02 07:19:30;;;;;;;2.20;1.17;;;;;;;;;;2085378;28;20030;-84
2023/02/02 07:20:49;;;;;;;3.20;1.98;;;;;;;;;;2085404;28;20029;-85
2023/02/02 07:22:07;;;;;;;2.50;1.20;;;;;;;;;;2084731;28;20112;-84
2023/02/02 07:23:27;;;;;;;2.08;0.80;;;;;;;;;;2085155;28;20069;-85
2023/02/02 07:24:46;;;;;;;4.20;1.33;;;;;;;;;;2086602;28;20045;-85
2023/02/02 07:26:06;;;;;;;0.82;0.60;;;;;;;;;;2085905;28;20479;-85
2023/02/02 07:27:25;;;;;;;1.63;1.13;;;;;;;;;;2085144;28;20025;-85
2023/02/02 07:28:44;;;;;;;5.60;1.60;;;;;;;;;;2085642;28;20061;-83
2023/02/02 07:30:04;;;;;;;2.10;1.20;;;;;;;;;;2080993;28;20041;-83
2023/02/02 07:31:24;;;;;;;3.10;1.23;;;;;;;;;;2080598;28;20116;-84
2023/02/02 07:32:49;;;;;;;2.25;1.17;;;;;;;;;;2086126;28;20025;-83
2023/02/02 07:34:08;;;;;;;2.53;1.00;;;;;;;;;;2081501;28;20026;-84
2023/02/02 07:35:27;;;;;;;1.02;0.93;;;;;;;;;;2083310;28;20510;-90
2023/02/02 07:36:46;;;;;;;1.20;1.10;;;;;;;;;;2080130;28;20034;-84
2023/02/02 07:38:05;;;;;;;1.33;1.20;;;;;;;;;;2085157;28;20037;-81
2023/02/02 07:39:24;;;;;;;1.05;0.93;;;;;;;;;;2082629;28;20144;-81
2023/02/02 07:40:43;;;;;;;1.30;1.20;;;;;;;;;;2083027;28;20054;-84
2023/02/02 07:42:04;;;;;;;4.00;1.42;;;;;;;;;;2085542;28;20025;-87
2023/02/02 07:43:23;;;;;;;2.97;1.80;;;;;;;;;;2086122;28;20033;-83
2023/02/02 07:44:43;;;;;;;3.20;1.35;;;;;;;;;;2082366;28;20037;-84
2023/02/02 07:46:03;;;;;;;3.13;1.10;;;;;;;;;;2085739;28;20507;-86
2023/02/02 07:47:22;;;;;;;1.40;1.25;;;;;;;;;;2085350;28;20029;-84
2023/02/02 07:48:41;;;;;;;2.17;1.10;;;;;;;;;;2084279;28;20025;-86
2023/02/02 07:50:00;;;;;;;1.50;1.17;;;;;;;;;;2083297;28;20060;-86
2023/02/02 07:51:20;;;;;;;1.25;1.08;;;;;;;;;;2084160;28;20021;-87
2023/02/02 07:52:38;;;;;;;1.35;1.25;;;;;;;;;;2086613;28;20081;-82
2023/02/02 07:53:58;;;;;;;1.75;1.45;;;;;;;;;;2091336;28;20028;-86
2023/02/02 07:55:17;;;;;;;1.85;1.50;;;;;;;;;;2086525;28;20028;-85
2023/02/02 07:56:36;;;;;;;3.13;1.15;;;;;;;;;;2085806;28;20399;-83
2023/02/02 07:57:57;;;;;;;2.92;1.40;;;;;;;;;;2078840;28;20022;-83
2023/02/02 07:59:17;;;;;;;4.95;1.08;;;;;;;;;;2082407;28;20026;-81
2023/02/02 08:00:36;;;;;;;2.70;1.15;;;;;;;;;;2084098;28;20029;-88
2023/02/02 08:01:55;;;;;;;2.45;1.30;;;;;;;;;;2081916;28;20033;-84
2023/02/02 08:03:15;;;;;;;2.00;1.15;;;;;;;;;;2084326;28;20061;-86
2023/02/02 08:04:34;;;;;;;1.85;1.20;;;;;;;;;;2080044;28;20028;-84
2023/02/02 08:05:53;;;;;;;1.05;0.95;;;;;;;;;;2079390;28;20069;-80
2023/02/02 08:07:13;;;;;;;2.00;1.40;;;;;;;;;;2083627;28;20021;-84
2023/02/02 08:08:32;;;;;;;1.55;1.17;;;;;;;;;;2084505;28;20498;-85
2023/02/02 08:09:50;;;;;;;3.03;1.30;;;;;;;;;;2080486;28;20056;-81
2023/02/02 08:11:11;;;;;;;1.95;1.05;;;;;;;;;;2080532;28;20017;-81